ADDS METAR Data INFO
IDs: Format: Raw Decoded Include TAF

Data at: 1145 UTC 17 Jul 2018

KDUC 171135Z AUTO 00000KT 10SM CLR 24/20 A3001 RMK AO2 T02450201
KDUC 171115Z AUTO 00000KT 10SM CLR 25/20 A3001 RMK AO2 T02500199
KDUC 171055Z AUTO 00000KT 10SM CLR 26/19 A3001 RMK AO2 T02570194
KDUC 171035Z AUTO 00000KT 10SM CLR 25/19 A3000 RMK AO2 T02550195
KDUC 171015Z AUTO 06003KT 10SM CLR 25/20 A3000 RMK AO2 T02520196
KDUC 170955Z AUTO 11006KT 10SM SCT120 26/20 A3000 RMK AO2 T02550200
KDUC 170935Z AUTO 07005KT 10SM SCT120 25/20 A3000 RMK AO2 T02520201
KDUC 170915Z AUTO 00000KT 10SM CLR 26/20 A2999 RMK AO2 T02590198
KDUC 170855Z AUTO 16003KT 10SM CLR 26/19 A2999 RMK AO2 T02650194
KDUC 170835Z AUTO 12003KT 10SM SCT120 26/20 A2999 RMK AO2 T02610196
KDUC 170815Z AUTO 12004KT 10SM SCT120 26/20 A2999 RMK AO2 T02640199
KDUC 170755Z AUTO 11003KT 10SM CLR 27/19 A3000 RMK AO2 T02700194
KDUC 170735Z AUTO 12004KT 10SM CLR 27/20 A3000 RMK AO2 LTG DSNT NW T02670198
KDUC 170715Z AUTO 12005KT 10SM CLR 27/20 A3000 RMK AO2 T02690200
KDUC 170655Z AUTO 10005KT 10SM CLR 27/20 A3001 RMK AO2 T02730196
KDUC 170635Z AUTO 12003KT 10SM CLR 28/19 A3001 RMK AO2 T02780193
KDUC 170615Z AUTO 13004KT 10SM CLR 28/19 A3001 RMK AO2 LTG DSNT NW T02830190
KDUC 170555Z AUTO 14004KT 10SM CLR 28/19 A3001 RMK AO2 T02840190 10370 20284
KDUC 170535Z AUTO 15006KT 10SM CLR 29/19 A3000 RMK AO2 T02910188
KDUC 170515Z AUTO 16008KT 10SM CLR 30/19 A3000 RMK AO2 T02990186
KDUC 170455Z AUTO 16007KT 10SM CLR 30/19 A3000 RMK AO2 T03000188
KDUC 170435Z AUTO 15007KT 10SM CLR 30/19 A3000 RMK AO2 T03040190
KDUC 170415Z AUTO 16007KT 10SM CLR 31/19 A3000 RMK AO2 T03060192
KDUC 170355Z AUTO 15007KT 10SM CLR 31/19 A3000 RMK AO2 T03060195
KDUC 170335Z AUTO 15006KT 10SM CLR 31/20 A3000 RMK AO2 LTG DSNT NW T03090198
KDUC 170315Z AUTO 15006KT 10SM SCT090 31/20 A3000 RMK AO2 T03100199
KDUC 170255Z AUTO 13005KT 10SM SCT090 31/20 A2999 RMK AO2 T03120200
KDUC 170235Z AUTO 14008KT 10SM CLR 32/20 A2999 RMK AO2 T03170199
KDUC 170215Z AUTO 14007KT 10SM CLR 32/21 A2997 RMK AO2 T03210207
KDUC 170155Z AUTO 14005KT 10SM CLR 33/21 A2996 RMK AO2 T03260209
KDUC 170135Z AUTO 14005KT 10SM CLR 33/21 A2995 RMK AO2 T03320208
KDUC 170115Z AUTO 13007KT 10SM CLR 34/20 A2995 RMK AO2 T03420205
KDUC 170055Z AUTO 12006KT 10SM CLR 35/20 A2994 RMK AO2 T03500201
KDUC 170035Z AUTO 12007KT 10SM CLR 35/20 A2994 RMK AO2 T03540198
KDUC 170015Z AUTO 14009KT 10SM CLR 36/19 A2993 RMK AO2 T03630193
KDUC 162355Z AUTO 13007KT 10SM CLR 37/19 A2993 RMK AO2 T03700192 10379 20347 403790232
KDUC 162335Z AUTO 14008KT 4SM HZ SCT085 37/19 A2994 RMK AO2 T03710185
KDUC 162315Z AUTO 13006KT 10SM CLR 37/19 A2994 RMK AO2 T03710193
KDUC 162255Z AUTO 14007KT 10SM CLR 37/19 A2994 RMK AO2 T03650191
KDUC 162235Z AUTO 16007KT 10SM CLR 37/19 A2994 RMK AO2 T03700190
KDUC 162215Z AUTO 16008KT 10SM SCT085 SCT100 37/20 A2995 RMK AO2 T03750196
KDUC 162155Z AUTO 13003KT 10SM SCT085 37/18 A2995 RMK AO2 T03660185
KDUC 162135Z AUTO 18009KT 10SM SCT085 37/19 A2996 RMK AO2 T03680191
KDUC 162115Z AUTO 17006G15KT 10SM CLR 38/19 A2997 RMK AO2 T03750187
KDUC 162055Z AUTO 17009G15KT 120V220 10SM SCT090 37/20 A2997 RMK AO2 T03730199
KDUC 162035Z AUTO 14006KT 10SM SCT090 36/20 A2999 RMK AO2 T03650196
KDUC 162015Z AUTO 00000KT 10SM SCT090 37/19 A2999 RMK AO2 T03720186
KDUC 161955Z AUTO 18009G16KT 10SM CLR 37/20 A3000 RMK AO2 T03710196
KDUC 161935Z AUTO 15010KT 10SM CLR 37/19 A3001 RMK AO2 T03700194
KDUC 161915Z AUTO 17006G15KT 10SM CLR 36/19 A3002 RMK AO2 T03640194
KDUC 161855Z AUTO 16007KT 090V250 7SM CLR 36/20 A3002 RMK AO2 T03600204
KDUC 161835Z AUTO 23003KT 10SM CLR 36/19 A3002 RMK AO2 T03560193
KDUC 161815Z AUTO 14007KT 10SM CLR 35/20 A3003 RMK AO2 T03510197
KDUC 161755Z AUTO 14004KT 10SM CLR 35/20 A3003 RMK AO2 T03460200 10351 20232
KDUC 161735Z AUTO 28003KT 10SM CLR 35/20 A3004 RMK AO2 T03460197
KDUC 161715Z AUTO 30003KT 10SM CLR 34/19 A3004 RMK AO2 T03380191
KDUC 161655Z AUTO 27003KT 10SM CLR 33/20 A3004 RMK AO2 T03320196
KDUC 161635Z AUTO 25006KT 7SM CLR 33/20 A3005 RMK AO2 T03330204
KDUC 161615Z AUTO 23006KT 10SM CLR 32/20 A3005 RMK AO2 T03240199
KDUC 161555Z AUTO 24007KT 10SM CLR 32/20 A3005 RMK AO2 T03170202
KDUC 161535Z AUTO 26007KT 10SM CLR 31/21 A3005 RMK AO2 T03090209
KDUC 161515Z AUTO 22008KT 10SM CLR 30/21 A3005 RMK AO2 T03030206
KDUC 161455Z AUTO 21008KT 10SM CLR 30/21 A3005 RMK AO2 T02980208
KDUC 161435Z AUTO 22006KT 10SM CLR 29/21 A3005 RMK AO2 T02890213
KDUC 161415Z AUTO 21004KT 10SM CLR 27/22 A3005 RMK AO2 T02730222
KDUC 161355Z AUTO 18006KT 10SM CLR 26/22 A3004 RMK AO2 T02640222
KDUC 161335Z AUTO 17005KT 10SM CLR 26/22 A3004 RMK AO2 T02560221
KDUC 161315Z AUTO 17005KT 10SM CLR 25/21 A3004 RMK AO2 T02500215
KDUC 161255Z AUTO 15004KT 10SM CLR 25/21 A3003 RMK AO2 T02460213
KDUC 161235Z AUTO 00000KT 10SM CLR 24/21 A3003 RMK AO2 T02400210
KDUC 161215Z AUTO 15003KT 10SM CLR 24/21 A3002 RMK AO2 T02350209
KDUC 161155Z AUTO 15004KT 10SM CLR 23/21 A3002 RMK AO2 T02320209 10250 20232 70095
KDUC 161135Z AUTO 14003KT 10SM CLR 23/21 A3001 RMK AO2 T02340208
KDUC 161115Z AUTO 14003KT 10SM CLR 24/21 A3001 RMK AO2 T02370208
KDUC 161055Z AUTO 13003KT 10SM CLR 24/21 A3000 RMK AO2 T02390208
KDUC 161035Z AUTO 13003KT 10SM CLR 24/21 A2999 RMK AO2 T02410209
KDUC 161015Z AUTO 16005KT 10SM CLR 24/21 A2999 RMK AO2 T02450209
KDUC 160955Z AUTO 00000KT 10SM CLR 24/21 A2999 RMK AO2 T02410211
KDUC 160935Z AUTO 11004KT 10SM CLR 24/21 A2999 RMK AO2 T02410213
KDUC 160915Z AUTO 11004KT 10SM CLR 24/21 A2999 RMK AO2 T02410215
KDUC 160855Z AUTO 12004KT 10SM CLR 24/21 A2999 RMK AO2 T02440215
KDUC 160835Z AUTO 00000KT 10SM CLR 24/22 A2999 RMK AO2 T02390216
KDUC 160815Z AUTO 12005KT 10SM CLR 24/22 A2999 RMK AO2 T02410218
KDUC 160755Z AUTO 09004KT 10SM CLR 24/22 A2999 RMK AO2 T02400218
KDUC 160735Z AUTO 12004KT 10SM CLR 24/22 A3000 RMK AO2 T02430224
KDUC 160715Z AUTO 07003KT 10SM CLR 25/22 A3000 RMK AO2 T02480217
KDUC 160655Z AUTO 06003KT 10SM CLR 25/22 A3001 RMK AO2 T02480222
KDUC 160635Z AUTO 09004KT 10SM CLR 25/22 A3001 RMK AO2 T02460223
KDUC 160615Z AUTO 11003KT 10SM CLR 25/23 A3000 RMK AO2 T02470230
KDUC 160555Z AUTO 13004KT 10SM CLR 25/23 A3001 RMK AO2 T02510231 10270 20247
KDUC 160535Z AUTO 00000KT 10SM CLR 25/23 A3000 RMK AO2 T02490232
KDUC 160515Z AUTO 09004KT 10SM CLR 25/23 A3000 RMK AO2 T02500232
KDUC 160455Z AUTO 00000KT 10SM CLR 25/24 A3000 RMK AO2 T02510236
KDUC 160435Z AUTO 11004KT 10SM CLR 26/23 A3000 RMK AO2 T02600230
KDUC 160415Z AUTO 00000KT 10SM CLR 26/23 A3000 RMK AO2 T02610230
KDUC 160355Z AUTO 08003KT 10SM CLR 26/22 A3000 RMK AO2 T02620224
KDUC 160335Z AUTO 05005KT 10SM CLR 26/23 A2999 RMK AO2 T02590233
KDUC 160315Z AUTO 07005KT 10SM CLR 26/23 A2999 RMK AO2 T02630230
KDUC 160255Z AUTO 09004KT 10SM CLR 26/23 A2997 RMK AO2 T02630225
KDUC 160235Z AUTO 08005KT 10SM CLR 26/24 A2996 RMK AO2 T02600236
KDUC 160215Z AUTO 00000KT 10SM CLR 27/23 A2996 RMK AO2 T02670228
KDUC 160155Z AUTO 00000KT 10SM CLR 27/23 A2996 RMK AO2
KDUC 160135Z AUTO 19003KT 10SM CLR 27/22 A2995 RMK AO2 T02690223
KDUC 160115Z AUTO 19006KT 10SM CLR 27/22 A2995 RMK AO2 LTG DSNT N T02660225
KDUC 160055Z AUTO 22007KT 10SM CLR 27/23 A2996 RMK AO2 T02670228
KDUC 160035Z AUTO 11008KT 10SM SCT070 SCT090 SCT120 26/23 A2995 RMK AO2 T02630235
KDUC 160015Z AUTO 32006KT 10SM SCT070 OVC100 27/24 A2994 RMK AO2 LTG DSNT E T02670236
KDUC 152355Z AUTO 24004KT 10SM SCT075 SCT080 OVC110 26/23 A2994 RMK AO2 LTG DSNT E AND SE P0025 T02570231 10384 20247 403840239 60095